This is the latest recevied weather packets stored in our database for station/object KC1TWD. If no packets are shown the sender has not sent any weather packets the latest 1 day(s).
| Time | Temp. | Humidity | Pressure | Rain* | Wind** | Luminosity | Snow |
|---|---|---|---|---|---|---|---|
| 1778099452 | 16.67° C | 96% | 1005 hPa | 0 mm | - | - | - |
| 1778098544 | 16.67° C | 96% | 1005.1 hPa | 0 mm | - | - | - |
| 1778098240 | 16.67° C | 97% | 1005 hPa | 1.78 mm | - | - | - |
| 1778097936 | 16.67° C | 97% | 1004.9 hPa | 1.78 mm | - | - | - |
| 1778097633 | 16.67° C | 97% | 1005 hPa | 0 mm | - | - | - |
| 1778097330 | 16.67° C | 98% | 1005 hPa | 0 mm | - | - | - |
| 1778096724 | 16.67° C | 97% | 1005.3 hPa | 1.27 mm | - | - | - |
| 1778093994 | 16.67° C | 97% | 1005.4 hPa | 1.78 mm | - | - | - |
| 1778093388 | 16.11° C | 96% | 1005.6 hPa | 0 mm | - | - | - |
| 1778092175 | 16.11° C | 96% | 1006.2 hPa | 3.05 mm | - | - | - |
| 1778090964 | 16.67° C | 95% | 1006.6 hPa | 1.78 mm | - | - | - |
| 1778090054 | 16.67° C | 94% | 1006.7 hPa | 1.78 mm | - | - | - |
| 1778088236 | 17.78° C | 88% | 1006.8 hPa | 1.78 mm | - | - | - |
| 1778086117 | 20° C | 72% | 1006.6 hPa | 0 mm | - | - | - |
| 1778084600 | 20.56° C | 68% | 1006.9 hPa | 0 mm | - | - | - |
| 1778084297 | 20.56° C | 69% | 1006.9 hPa | 0 mm | - | - | - |
| 1778083994 | 20.56° C | 68% | 1007 hPa | 0 mm | - | - | - |
| 1778081644 | 20° C | 71% | 1007.6 hPa | 0 mm | - | - | - |
| 1778081038 | 20° C | 70% | 1007.9 hPa | 0 mm | - | - | - |
| 1778080433 | 20° C | 70% | 1007.9 hPa | 0 mm | - | - | - |
| 1778079827 | 20° C | 74% | 1008 hPa | 0 mm | - | - | - |
| 1778079524 | 20° C | 70% | 1007.9 hPa | 0 mm | - | - | - |
| 1778079220 | 19.44° C | 72% | 1007.7 hPa | 0 mm | - | - | - |
| 1778078918 | 19.44° C | 72% | 1007.8 hPa | 0 mm | - | - | - |
| 1778078614 | 19.44° C | 71% | 1007.6 hPa | 0 mm | - | - | - |
* Rain latest hour (hover to see other rain measurements)
** Current wind speed in m/s (hover to see current wind gust speed)